Novotroitskoe, Kazakhstan
Current Conditions -  °F | °C
As of 1:00 PM on Saturday 25 Oct 2014 (Local Time) from UCFM Reporting Station
Clear Clear  
Wind Chill: 63°   Ceiling: Unl
Heat Index: 63°   Visibility: 6mi
Dew Point: 50°   Wind: 7mph
Humidity: 63%   Direction: 280°W
Pressure: 30"   Gusts: NA
Location:  43.7°N, 73.78°E
Report Text: UCFM 250700Z 28003MPS CAVOK 17/10 Q1016 R26/CLRD70 NOSIG
Loading
Personal Weather Stations






























Interactive Weather Map
Tropical Storm Tracking
New forecast layout! Learn more

10-Day Weather Forecast

Advertisements
Track Severe Weather on mobile